createdAt,value
2018-09-10T00:00:39.981Z,57.11
2018-09-10T00:03:07.545Z,56.43
2018-09-10T00:05:35.090Z,57.02
2018-09-10T00:08:03.269Z,57.33
2018-09-10T00:10:30.789Z,56.78
2018-09-10T00:12:59.515Z,57.35
2018-09-10T00:15:27.083Z,56.52
2018-09-10T00:17:54.569Z,56.73
2018-09-10T00:20:22.109Z,56.78
2018-09-10T00:22:49.659Z,56.97
2018-09-10T00:25:17.209Z,56.95
2018-09-10T00:27:44.717Z,57.34
2018-09-10T00:30:12.228Z,57.14
2018-09-10T00:32:39.720Z,56.92
2018-09-10T00:35:07.273Z,56.64
2018-09-10T00:37:34.798Z,56.78
2018-09-10T00:40:02.347Z,56.41
2018-09-10T00:42:30.483Z,56.66
2018-09-10T00:44:58.781Z,56.49
2018-09-10T00:47:27.235Z,56.84
2018-09-10T00:49:54.755Z,56.39
2018-09-10T00:52:22.278Z,56.54
2018-09-10T00:54:49.855Z,56.53
2018-09-10T00:57:17.850Z,56.14
2018-09-10T00:59:45.365Z,56.84
2018-09-10T01:02:12.902Z,56.49
2018-09-10T01:04:40.421Z,56.63
2018-09-10T01:07:08.044Z,56.23
2018-09-10T01:09:35.606Z,56.19
2018-09-10T01:12:03.119Z,56.69
2018-09-10T01:14:30.725Z,56.69
2018-09-10T01:16:59.250Z,56.74
2018-09-10T01:19:27.125Z,56.48
2018-09-10T01:21:55.601Z,56.74
2018-09-10T01:24:23.479Z,56.50
2018-09-10T01:26:50.976Z,56.97
2018-09-10T01:29:18.483Z,57.02
2018-09-10T01:31:46.006Z,57.25
2018-09-10T01:34:18.539Z,57.21
2018-09-10T01:36:46.090Z,57.09
2018-09-10T01:39:13.606Z,56.72
2018-09-10T01:41:41.132Z,56.18
2018-09-10T01:44:08.735Z,56.68
2018-09-10T01:46:37.910Z,56.75
2018-09-10T01:49:05.424Z,56.22
2018-09-10T01:51:33.739Z,56.43
2018-09-10T01:54:02.040Z,55.87
2018-09-10T01:56:30.074Z,55.89
2018-09-10T01:58:57.575Z,56.13
2018-09-10T02:01:25.062Z,56.59
2018-09-10T02:03:52.608Z,56.44
2018-09-10T02:06:20.105Z,56.13
2018-09-10T02:08:48.220Z,56.03
2018-09-10T02:11:16.336Z,56.75
2018-09-10T02:13:43.856Z,56.52
2018-09-10T02:16:15.350Z,56.71
2018-09-10T02:18:42.861Z,56.58
2018-09-10T02:21:11.005Z,56.45
2018-09-10T02:23:39.018Z,57.09
2018-09-10T02:26:06.574Z,56.51
2018-09-10T02:28:34.393Z,57.01
2018-09-10T02:31:02.010Z,56.99
2018-09-10T02:33:29.568Z,57.21
2018-09-10T02:35:57.096Z,56.94
2018-09-10T02:38:24.711Z,57.34
2018-09-10T02:40:52.190Z,57.19
2018-09-10T02:43:19.727Z,57.77
2018-09-10T02:45:47.566Z,57.80
2018-09-10T02:48:15.080Z,57.49
2018-09-10T02:50:42.609Z,57.82
2018-09-10T02:53:10.126Z,57.40
2018-09-10T02:55:37.656Z,57.80
2018-09-10T02:58:05.198Z,58.37
2018-09-10T03:00:32.696Z,57.85
2018-09-10T03:03:00.220Z,57.58
2018-09-10T03:05:27.749Z,58.08
2018-09-10T03:07:55.687Z,57.58
2018-09-10T03:10:23.694Z,57.41
2018-09-10T03:12:51.189Z,58.18
2018-09-10T03:15:18.740Z,57.52
2018-09-10T03:17:46.302Z,57.85
2018-09-10T03:20:13.831Z,58.40
2018-09-10T03:22:41.691Z,58.22
2018-09-10T03:25:09.207Z,58.24
2018-09-10T03:27:36.754Z,57.81
2018-09-10T03:30:04.286Z,57.90
2018-09-10T03:32:31.786Z,58.16
2018-09-10T03:34:59.362Z,58.42
2018-09-10T03:37:26.898Z,58.64
2018-09-10T03:39:54.417Z,57.75
2018-09-10T03:42:21.926Z,58.19
2018-09-10T03:44:49.462Z,58.01
2018-09-10T03:47:17.067Z,57.64
2018-09-10T03:49:44.590Z,56.95
2018-09-10T03:52:12.461Z,56.75
2018-09-10T03:54:40.012Z,56.73
2018-09-10T03:57:07.619Z,56.89
2018-09-10T03:59:35.155Z,57.34
2018-09-10T04:02:02.686Z,57.47
2018-09-10T04:04:30.251Z,57.83
2018-09-10T04:06:58.385Z,58.07
2018-09-10T04:09:25.889Z,58.06
2018-09-10T04:11:53.458Z,57.82
2018-09-10T04:14:21.340Z,57.77
2018-09-10T04:16:48.854Z,57.54
2018-09-10T04:19:16.455Z,57.60
2018-09-10T04:21:44.310Z,57.58
2018-09-10T04:24:11.826Z,56.94
2018-09-10T04:26:39.365Z,57.62
2018-09-10T04:29:06.930Z,57.01
2018-09-10T04:31:34.443Z,56.95
2018-09-10T04:34:02.425Z,57.09
2018-09-10T04:36:29.965Z,56.88
2018-09-10T04:38:57.507Z,56.87
2018-09-10T04:41:25.551Z,56.77
2018-09-10T04:43:54.080Z,57.08
2018-09-10T04:46:21.603Z,56.59
2018-09-10T04:48:49.521Z,57.05
2018-09-10T04:51:18.625Z,56.11
2018-09-10T04:53:46.212Z,55.93
2018-09-10T04:56:14.090Z,55.16
2018-09-10T04:58:47.791Z,54.63
2018-09-10T05:01:15.442Z,54.59
2018-09-10T05:03:43.438Z,54.30
2018-09-10T05:06:10.994Z,53.93
2018-09-10T05:08:39.246Z,53.29
2018-09-10T05:11:07.237Z,53.71
2018-09-10T05:13:34.766Z,53.04
2018-09-10T05:16:02.330Z,53.83
2018-09-10T05:18:30.182Z,53.61
2018-09-10T05:20:57.762Z,53.28
2018-09-10T05:23:26.433Z,52.99
2018-09-10T05:25:56.971Z,53.80
2018-09-10T05:28:24.691Z,53.69
2018-09-10T05:30:52.194Z,53.02
2018-09-10T05:33:20.120Z,52.78
2018-09-10T05:35:47.708Z,53.06
2018-09-10T05:38:15.236Z,52.58
2018-09-10T05:40:43.094Z,53.19
2018-09-10T05:43:11.265Z,52.89
2018-09-10T05:45:39.499Z,53.20
2018-09-10T05:48:07.452Z,52.82
2018-09-10T05:50:34.973Z,53.66
2018-09-10T05:53:02.531Z,53.43
2018-09-10T05:55:31.518Z,53.73
2018-09-10T05:57:59.034Z,53.40
2018-09-10T06:00:26.590Z,53.76
2018-09-10T06:02:54.394Z,52.93
2018-09-10T06:05:22.056Z,53.58
2018-09-10T06:07:49.586Z,53.49
2018-09-10T06:10:17.454Z,53.67
2018-09-10T06:12:46.559Z,53.09
2018-09-10T06:15:14.096Z,52.92
2018-09-10T06:17:42.241Z,53.38
2018-09-10T06:20:09.765Z,53.40
2018-09-10T06:22:37.959Z,53.37
2018-09-10T06:25:07.138Z,52.96
2018-09-10T06:27:34.705Z,52.69
2018-09-10T06:30:02.280Z,52.67
2018-09-10T06:32:30.144Z,52.65
2018-09-10T06:34:57.707Z,52.71
2018-09-10T06:37:25.256Z,52.80
2018-09-10T06:39:53.900Z,52.72
2018-09-10T06:42:21.487Z,52.57
2018-09-10T06:44:49.120Z,52.84
2018-09-10T06:47:17.021Z,53.06
2018-09-10T06:49:44.539Z,53.29
2018-09-10T06:52:12.046Z,53.89
2018-09-10T06:54:40.740Z,54.17
2018-09-10T06:57:08.272Z,54.23
2018-09-10T06:59:35.857Z,53.74
2018-09-10T07:02:03.709Z,53.27
2018-09-10T07:04:31.279Z,53.91
2018-09-10T07:06:58.814Z,53.26
2018-09-10T07:09:27.621Z,53.17
2018-09-10T07:11:55.177Z,53.87
2018-09-10T07:14:22.794Z,53.01
2018-09-10T07:16:50.857Z,53.54
2018-09-10T07:19:18.413Z,53.46
2018-09-10T07:21:45.930Z,53.78
2018-09-10T07:24:13.982Z,53.50
2018-09-10T07:26:41.575Z,53.49
2018-09-10T07:29:09.204Z,52.85
2018-09-10T07:31:37.146Z,53.14
2018-09-10T07:34:04.690Z,52.98
2018-09-10T07:36:37.335Z,53.68
2018-09-10T07:39:05.203Z,53.09
2018-09-10T07:41:32.791Z,53.46
2018-09-10T07:44:01.664Z,53.81
2018-09-10T07:46:29.676Z,53.58
2018-09-10T07:48:57.283Z,53.56
2018-09-10T07:51:25.409Z,52.72
2018-09-10T07:53:53.336Z,52.25
2018-09-10T07:56:21.129Z,52.46
2018-09-10T07:58:49.700Z,52.74
2018-09-10T08:01:17.653Z,52.88
2018-09-10T08:03:46.851Z,52.99
2018-09-10T08:06:14.422Z,52.38
2018-09-10T08:08:42.360Z,52.31
2018-09-10T08:11:09.923Z,52.34
2018-09-10T08:13:37.484Z,52.27
2018-09-10T08:16:05.493Z,53.30
2018-09-10T08:18:33.522Z,52.76
2018-09-10T08:21:01.116Z,53.36
2018-09-10T08:23:28.964Z,52.89
2018-09-10T08:25:58.251Z,53.90
2018-09-10T08:28:25.785Z,54.42
2018-09-10T08:30:54.589Z,53.98
2018-09-10T08:33:22.149Z,54.02
2018-09-10T08:35:49.706Z,54.29
2018-09-10T08:38:18.320Z,54.83
2018-09-10T08:40:45.874Z,54.60
2018-09-10T08:43:13.413Z,55.49
2018-09-10T08:45:42.100Z,55.47
2018-09-10T08:48:10.237Z,54.63
2018-09-10T08:50:39.320Z,54.61
2018-09-10T08:53:08.020Z,54.14
2018-09-10T08:55:35.643Z,53.92
2018-09-10T08:58:03.223Z,53.94
2018-09-10T09:00:31.105Z,53.45
2018-09-10T09:02:58.649Z,53.84
2018-09-10T09:05:26.296Z,54.05
2018-09-10T09:07:55.259Z,54.49
2018-09-10T09:10:22.871Z,54.20
2018-09-10T09:12:50.422Z,54.11
2018-09-10T09:15:18.352Z,53.59
2018-09-10T09:17:47.111Z,54.50
2018-09-10T09:20:14.653Z,54.08
2018-09-10T09:22:43.197Z,54.51
2018-09-10T09:25:10.760Z,54.97
2018-09-10T09:27:39.446Z,54.57
2018-09-10T09:30:12.023Z,54.40
2018-09-10T09:32:40.320Z,54.24
2018-09-10T09:35:07.923Z,54.75
2018-09-10T09:37:42.330Z,54.64
2018-09-10T09:40:14.945Z,54.35
2018-09-10T09:42:48.293Z,54.32
2018-09-10T09:45:21.390Z,53.49
2018-09-10T09:47:50.472Z,52.03
2018-09-10T09:50:18.309Z,51.28
2018-09-10T09:52:47.514Z,50.83
2018-09-10T09:55:15.025Z,51.33
2018-09-10T09:57:44.152Z,50.63
2018-09-10T10:00:16.690Z,50.88
2018-09-10T10:02:49.322Z,49.80
2018-09-10T10:05:17.142Z,49.25
2018-09-10T10:07:45.445Z,48.70
2018-09-10T10:10:13.041Z,48.73
2018-09-10T10:12:41.259Z,48.24
2018-09-10T10:15:08.856Z,48.73
2018-09-10T10:17:37.367Z,48.30
2018-09-10T10:20:06.461Z,47.83
2018-09-10T10:22:34.048Z,47.47
2018-09-10T10:25:01.691Z,46.57
2018-09-10T10:27:30.331Z,46.54
2018-09-10T10:29:57.932Z,46.18
2018-09-10T10:32:25.529Z,46.94
2018-09-10T10:34:53.415Z,47.43
2018-09-10T10:37:21.540Z,48.85
2018-09-10T10:39:49.101Z,48.78
2018-09-10T10:42:17.129Z,47.78
2018-09-10T10:44:44.774Z,46.86
2018-09-10T10:47:13.170Z,47.13
2018-09-10T10:49:41.076Z,47.63
2018-09-10T10:52:09.039Z,48.98
2018-09-10T10:54:37.691Z,49.00
2018-09-10T10:57:05.915Z,48.68
2018-09-10T10:59:33.466Z,48.96
2018-09-10T11:02:02.838Z,49.39
2018-09-10T11:04:30.634Z,49.23
2018-09-10T11:06:58.235Z,49.67
2018-09-10T11:09:25.850Z,49.40
2018-09-10T11:11:54.640Z,48.71
2018-09-10T11:14:23.057Z,49.05
2018-09-10T11:16:50.659Z,49.29
2018-09-10T11:19:19.569Z,49.81
2018-09-10T11:21:47.147Z,50.05
2018-09-10T11:24:14.729Z,50.42
2018-09-10T11:26:44.505Z,50.77
2018-09-10T11:29:12.046Z,51.70
2018-09-10T11:31:40.121Z,51.28
2018-09-10T11:34:09.214Z,51.22
2018-09-10T11:36:38.590Z,51.52
2018-09-10T11:39:10.143Z,51.13
2018-09-10T11:41:38.917Z,51.15
2018-09-10T11:44:10.008Z,51.36
2018-09-10T11:46:37.728Z,51.62
2018-09-10T11:49:06.346Z,51.28
2018-09-10T11:51:33.939Z,51.10
2018-09-10T11:54:01.527Z,51.54
2018-09-10T11:56:29.563Z,51.55
2018-09-10T11:58:58.041Z,50.95
2018-09-10T12:01:25.573Z,51.41
2018-09-10T12:03:54.702Z,51.08
2018-09-10T12:06:22.302Z,50.89
2018-09-10T12:08:49.896Z,50.72
2018-09-10T12:11:18.808Z,50.50
2018-09-10T12:13:48.186Z,50.81
2018-09-10T12:16:16.330Z,50.00
2018-09-10T12:18:44.340Z,51.04
2018-09-10T12:21:11.885Z,50.75
2018-09-10T12:23:39.469Z,51.11
2018-09-10T12:26:07.491Z,51.22
2018-09-10T12:28:38.229Z,51.74
2018-09-10T12:31:06.387Z,51.49
2018-09-10T12:33:34.307Z,51.63
2018-09-10T12:36:04.103Z,51.57
2018-09-10T12:38:32.095Z,51.75
2018-09-10T12:41:00.447Z,52.45
2018-09-10T12:43:28.728Z,52.50
2018-09-10T12:45:56.458Z,52.42
2018-09-10T12:48:25.078Z,52.07
2018-09-10T12:50:52.691Z,52.56
2018-09-10T12:53:20.267Z,52.63
2018-09-10T12:55:48.214Z,52.28
2018-09-10T12:58:15.769Z,52.45
2018-09-10T13:00:44.359Z,52.93
2018-09-10T13:03:12.346Z,52.65
2018-09-10T13:05:40.023Z,52.74
2018-09-10T13:08:07.664Z,52.70
2018-09-10T13:10:35.744Z,52.38
2018-09-10T13:13:04.218Z,52.67
2018-09-10T13:15:31.739Z,51.85
2018-09-10T13:18:00.659Z,51.76
2018-09-10T13:20:28.205Z,52.15
2018-09-10T13:22:55.760Z,51.51
2018-09-10T13:25:23.843Z,51.12
2018-09-10T13:27:51.450Z,51.26
2018-09-10T13:30:19.033Z,51.06
2018-09-10T13:32:47.021Z,50.53
2018-09-10T13:35:14.644Z,50.55
2018-09-10T13:37:42.246Z,49.75
2018-09-10T13:40:12.004Z,50.26
2018-09-10T13:42:39.745Z,49.88
2018-09-10T13:45:07.303Z,49.55
2018-09-10T13:47:36.813Z,49.99
2018-09-10T13:50:04.970Z,50.09
2018-09-10T13:52:32.490Z,49.94
2018-09-10T13:55:01.146Z,50.46
2018-09-10T13:57:29.256Z,50.44
2018-09-10T13:59:59.267Z,50.04
2018-09-10T14:02:28.199Z,50.59
2018-09-10T14:04:58.438Z,50.85
2018-09-10T14:07:28.971Z,50.51
2018-09-10T14:10:00.622Z,50.92
2018-09-10T14:12:29.148Z,50.98
2018-09-10T14:14:57.945Z,50.61
2018-09-10T14:17:27.444Z,50.32
2018-09-10T14:19:55.674Z,50.67
2018-09-10T14:22:23.246Z,50.77
2018-09-10T14:24:51.260Z,51.62
2018-09-10T14:27:18.859Z,50.99
2018-09-10T14:29:46.687Z,51.21
2018-09-10T14:32:14.698Z,50.55
2018-09-10T14:34:43.698Z,51.17
2018-09-10T14:37:13.180Z,51.01
2018-09-10T14:39:42.739Z,50.36
2018-09-10T14:42:11.369Z,50.98
2018-09-10T14:44:39.759Z,50.46
2018-09-10T14:47:07.671Z,50.71
2018-09-10T14:49:35.934Z,50.43
2018-09-10T14:52:04.038Z,49.96
2018-09-10T14:54:31.952Z,50.56
2018-09-10T14:57:00.019Z,49.76
2018-09-10T14:59:27.598Z,49.74
2018-09-10T15:01:57.195Z,49.45
2018-09-10T15:04:26.773Z,49.92
2018-09-10T15:06:54.404Z,49.47
2018-09-10T15:09:22.936Z,49.36
2018-09-10T15:11:51.217Z,50.36
2018-09-10T15:14:18.771Z,49.54
2018-09-10T15:16:46.715Z,49.90
2018-09-10T15:19:14.468Z,49.31
2018-09-10T15:21:42.585Z,49.97
2018-09-10T15:24:10.530Z,50.34
2018-09-10T15:26:38.080Z,50.21
2018-09-10T15:29:06.959Z,50.19
2018-09-10T15:31:36.158Z,50.28
2018-09-10T15:34:04.453Z,49.65
2018-09-10T15:36:32.083Z,50.07
2018-09-10T15:38:59.949Z,50.12
2018-09-10T15:41:27.526Z,50.67
2018-09-10T15:43:57.259Z,50.86
2018-09-10T15:46:24.829Z,51.30
2018-09-10T15:48:52.498Z,50.76
2018-09-10T15:51:20.499Z,50.98
2018-09-10T15:53:48.877Z,51.20
2018-09-10T15:56:16.504Z,51.25
2018-09-10T15:58:44.440Z,50.97
2018-09-10T16:01:11.978Z,51.37
2018-09-10T16:03:39.935Z,51.22
2018-09-10T16:06:07.857Z,51.86
2018-09-10T16:08:35.449Z,51.42
2018-09-10T16:11:02.991Z,51.42
2018-09-10T16:13:30.919Z,51.92
2018-09-10T16:15:58.462Z,52.05
2018-09-10T16:18:33.230Z,51.42
2018-09-10T16:21:01.452Z,51.68
2018-09-10T16:23:29.053Z,52.41
2018-09-10T16:25:56.627Z,52.31
2018-09-10T16:28:28.359Z,52.49
2018-09-10T16:30:56.929Z,52.34
2018-09-10T16:33:24.530Z,52.74
2018-09-10T16:35:52.649Z,52.53
2018-09-10T16:38:21.283Z,52.67
2018-09-10T16:40:49.623Z,52.47
2018-09-10T16:43:17.516Z,52.59
2018-09-10T16:45:45.030Z,52.04
2018-09-10T16:48:13.359Z,52.57
2018-09-10T16:50:44.549Z,52.05
2018-09-10T16:53:12.461Z,52.28
2018-09-10T16:55:41.373Z,52.42
2018-09-10T16:58:11.203Z,52.82
2018-09-10T17:00:38.714Z,52.48
2018-09-10T17:03:06.318Z,52.58
2018-09-10T17:05:34.961Z,53.37
2018-09-10T17:08:02.591Z,52.86
2018-09-10T17:10:30.963Z,53.32
2018-09-10T17:13:00.452Z,52.74
2018-09-10T17:15:29.126Z,53.09
2018-09-10T17:17:57.894Z,53.89
2018-09-10T17:20:25.882Z,53.36
2018-09-10T17:22:53.444Z,53.45
2018-09-10T17:25:22.044Z,53.00
2018-09-10T17:27:49.933Z,53.81
2018-09-10T17:30:17.514Z,53.91
2018-09-10T17:32:45.894Z,53.30
2018-09-10T17:35:14.730Z,53.22
2018-09-10T17:37:43.456Z,53.40
2018-09-10T17:40:12.005Z,54.16
2018-09-10T17:42:40.150Z,54.11
2018-09-10T17:45:07.682Z,54.41
2018-09-10T17:47:38.623Z,53.75
2018-09-10T17:50:06.559Z,53.70
2018-09-10T17:52:34.875Z,54.34
2018-09-10T17:55:05.801Z,54.46
2018-09-10T17:57:33.758Z,54.28
2018-09-10T18:00:02.769Z,53.93
2018-09-10T18:02:30.866Z,54.23
2018-09-10T18:04:59.470Z,54.09
2018-09-10T18:07:27.809Z,54.46
2018-09-10T18:09:55.402Z,54.31
2018-09-10T18:12:23.430Z,54.44
2018-09-10T18:14:55.467Z,55.17
2018-09-10T18:17:25.917Z,54.76
2018-09-10T18:19:55.637Z,55.01
2018-09-10T18:25:16.413Z,54.87
2018-09-10T18:27:46.557Z,54.81
2018-09-10T18:30:14.349Z,55.12
2018-09-10T18:32:42.318Z,55.00
2018-09-10T18:35:14.484Z,55.38
2018-09-10T18:37:44.243Z,55.87
2018-09-10T18:40:12.289Z,55.99
2018-09-10T18:42:39.844Z,56.36
2018-09-10T18:45:07.439Z,55.72
2018-09-10T18:47:35.628Z,56.71
2018-09-10T18:50:03.346Z,56.26
2018-09-10T18:52:36.214Z,56.60
2018-09-10T18:55:04.668Z,57.22
2018-09-10T18:57:35.373Z,57.43
2018-09-10T19:00:03.512Z,57.79
2018-09-10T19:02:31.855Z,58.44
2018-09-10T19:05:05.086Z,57.74
2018-09-10T19:07:35.871Z,57.98
2018-09-10T19:10:04.889Z,58.86
2018-09-10T19:12:32.668Z,58.89
2018-09-10T19:15:00.527Z,58.77
2018-09-10T19:17:28.352Z,58.53
2018-09-10T19:19:56.673Z,58.49
2018-09-10T19:22:25.442Z,59.20
2018-09-10T19:24:53.878Z,58.54
2018-09-10T19:27:22.092Z,58.96
2018-09-10T19:29:50.667Z,58.91
2018-09-10T19:32:20.003Z,58.58
2018-09-10T19:34:47.684Z,59.04
2018-09-10T19:37:17.346Z,58.96
2018-09-10T19:39:44.956Z,58.95
2018-09-10T19:42:14.285Z,58.97
2018-09-10T19:44:42.241Z,59.34
2018-09-10T19:47:10.451Z,59.33
2018-09-10T19:49:38.130Z,58.44
2018-09-10T19:52:07.266Z,59.25
2018-09-10T19:54:35.846Z,58.66
2018-09-10T19:57:03.675Z,59.41
2018-09-10T19:59:32.377Z,58.74
2018-09-10T20:02:00.918Z,58.52
2018-09-10T20:04:28.433Z,59.17
2018-09-10T20:06:56.347Z,59.16
2018-09-10T20:09:24.698Z,59.58
2018-09-10T20:11:53.297Z,59.03
2018-09-10T20:14:22.784Z,59.74
2018-09-10T20:16:50.330Z,59.94
2018-09-10T20:19:19.299Z,60.12
2018-09-10T20:21:47.910Z,59.68
2018-09-10T20:24:15.800Z,59.85
2018-09-10T20:26:43.649Z,60.38
2018-09-10T20:29:11.947Z,59.91
2018-09-10T20:31:39.885Z,60.00
2018-09-10T20:34:08.772Z,60.15
2018-09-10T20:36:38.566Z,60.29
2018-09-10T20:39:06.263Z,60.55
2018-09-10T20:41:33.850Z,60.72
2018-09-10T20:44:01.764Z,60.12
2018-09-10T20:46:33.139Z,60.46
2018-09-10T20:49:00.679Z,60.84
2018-09-10T20:51:30.725Z,60.80
2018-09-10T20:53:58.238Z,60.80
2018-09-10T20:56:27.099Z,60.43
2018-09-10T20:58:55.957Z,60.37
2018-09-10T21:01:23.798Z,60.94
2018-09-10T21:03:52.379Z,60.80
2018-09-10T21:06:20.632Z,61.11
2018-09-10T21:08:49.394Z,60.41
2018-09-10T21:11:16.933Z,60.98
2018-09-10T21:13:44.780Z,61.04
2018-09-10T21:16:12.406Z,60.91
2018-09-10T21:18:40.210Z,61.49
2018-09-10T21:21:08.210Z,61.69
2018-09-10T21:23:37.216Z,61.89
2018-09-10T21:26:04.746Z,62.19
2018-09-10T21:28:33.293Z,62.10
2018-09-10T21:34:09.691Z,62.71
2018-09-10T21:36:37.232Z,62.06
2018-09-10T21:39:04.788Z,62.22
2018-09-10T21:41:32.703Z,61.58
2018-09-10T21:44:00.571Z,61.19
2018-09-10T21:46:32.402Z,61.78
2018-09-10T21:49:02.498Z,61.61
2018-09-10T21:51:30.077Z,61.61
2018-09-10T21:53:58.454Z,61.29
2018-09-10T21:56:26.506Z,61.36
2018-09-10T21:58:54.006Z,61.16
2018-09-10T22:01:21.521Z,60.86
2018-09-10T22:03:49.439Z,60.89
2018-09-10T22:06:16.986Z,60.82
2018-09-10T22:08:44.508Z,61.17
2018-09-10T22:11:13.168Z,61.03
2018-09-10T22:13:40.730Z,61.13
2018-09-10T22:16:08.866Z,61.04
2018-09-10T22:18:36.744Z,61.58
2018-09-10T22:21:05.143Z,61.78
2018-09-10T22:23:32.676Z,61.24
2018-09-10T22:26:01.570Z,61.47
2018-09-10T22:28:29.118Z,61.35
2018-09-10T22:30:56.651Z,60.79
2018-09-10T22:33:24.658Z,61.36
2018-09-10T22:35:52.193Z,61.25
2018-09-10T22:38:19.726Z,61.01
2018-09-10T22:40:47.220Z,60.98
2018-09-10T22:43:15.099Z,61.22
2018-09-10T22:45:42.633Z,61.02
2018-09-10T22:48:10.176Z,60.41
2018-09-10T22:50:37.681Z,60.38
2018-09-10T22:53:05.619Z,60.55
2018-09-10T22:55:33.145Z,60.65
2018-09-10T22:58:00.669Z,61.23
2018-09-10T23:00:29.357Z,61.31
2018-09-10T23:02:56.861Z,61.72
2018-09-10T23:05:24.410Z,61.56
2018-09-10T23:07:52.510Z,61.80
2018-09-10T23:10:20.418Z,61.51
2018-09-10T23:12:47.930Z,61.46
2018-09-10T23:15:15.442Z,61.32
2018-09-10T23:17:44.973Z,61.44
2018-09-10T23:20:16.462Z,61.34
2018-09-10T23:22:43.982Z,62.38
2018-09-10T23:25:11.513Z,61.58
2018-09-10T23:27:39.027Z,62.71
2018-09-10T23:30:07.025Z,62.67
2018-09-10T23:32:34.538Z,63.05
2018-09-10T23:35:04.053Z,62.83
2018-09-10T23:37:32.045Z,62.70
2018-09-10T23:39:59.574Z,62.68
2018-09-10T23:42:27.885Z,63.14
2018-09-10T23:44:55.796Z,62.75
2018-09-10T23:47:23.342Z,63.23
2018-09-10T23:49:50.906Z,63.58
2018-09-10T23:52:18.711Z,63.31
2018-09-10T23:54:46.235Z,62.92
2018-09-10T23:57:13.741Z,63.30
2018-09-10T23:59:41.296Z,62.74
